createdAt,value
2022-10-13T00:00:43.671Z,18.31
2022-10-13T00:01:50.851Z,18.94
2022-10-13T00:02:58.099Z,15.88
2022-10-13T00:04:02.134Z,19.25
2022-10-13T00:05:58.718Z,17.56
2022-10-13T00:06:20.018Z,19.19
2022-10-13T00:07:27.740Z,17.81
2022-10-13T00:08:34.518Z,15.00
2022-10-13T00:09:41.793Z,21.81
2022-10-13T00:10:53.237Z,17.00
2022-10-13T00:11:58.743Z,17.50
2022-10-13T00:13:04.280Z,15.44
2022-10-13T00:14:11.386Z,15.38
2022-10-13T00:15:19.781Z,18.94
2022-10-13T00:16:25.358Z,13.88
2022-10-13T00:17:36.073Z,18.25
2022-10-13T00:18:38.619Z,19.00
2022-10-13T00:19:43.856Z,17.00
2022-10-13T00:20:51.971Z,13.56
2022-10-13T00:21:55.984Z,17.62
2022-10-13T00:23:00.041Z,14.31
2022-10-13T00:24:05.860Z,15.94
2022-10-13T00:25:11.529Z,17.50
2022-10-13T00:26:17.792Z,16.25
2022-10-13T00:27:28.348Z,17.62
2022-10-13T00:57:40.245Z,14.44
2022-10-13T00:58:47.435Z,16.94
2022-10-13T00:59:52.060Z,14.13
2022-10-13T01:00:59.551Z,18.50
2022-10-13T01:02:04.530Z,17.50
2022-10-13T01:03:08.390Z,15.81
2022-10-13T01:04:22.664Z,19.12
2022-10-13T01:05:26.702Z,21.25
2022-10-13T01:06:31.463Z,15.31
2022-10-13T01:27:40.318Z,17.00
2022-10-13T01:29:10.056Z,15.06
2022-10-13T01:50:28.798Z,13.81
2022-10-13T01:51:43.491Z,19.31
2022-10-13T01:53:01.044Z,17.94
2022-10-13T01:54:13.135Z,18.69
2022-10-13T01:55:13.946Z,16.44
2022-10-13T01:56:22.269Z,21.31
2022-10-13T01:57:34.969Z,17.37
2022-10-13T01:58:41.374Z,23.00
2022-10-13T01:59:47.308Z,18.12
2022-10-13T02:00:54.465Z,21.44
2022-10-13T02:02:15.182Z,19.69
2022-10-13T02:03:31.017Z,21.44
2022-10-13T02:04:58.748Z,22.37
2022-10-13T02:06:09.288Z,21.06
2022-10-13T02:07:14.378Z,20.37
2022-10-13T02:08:33.797Z,18.19
2022-10-13T02:10:00.295Z,22.37
2022-10-13T02:11:16.109Z,18.81
2022-10-13T02:12:40.925Z,17.69
2022-10-13T02:14:04.663Z,16.12
2022-10-13T02:15:16.693Z,20.44
2022-10-13T02:16:25.497Z,18.56
2022-10-13T02:17:35.832Z,21.44
2022-10-13T02:18:41.139Z,20.25
2022-10-13T02:19:45.437Z,20.56
2022-10-13T02:21:06.009Z,18.87
2022-10-13T02:22:01.156Z,22.69
2022-10-13T02:23:13.745Z,19.31
2022-10-13T02:24:15.741Z,18.25
2022-10-13T02:25:20.987Z,17.56
2022-10-13T02:26:25.998Z,22.37
2022-10-13T02:27:30.165Z,21.00
2022-10-13T02:28:34.304Z,18.31
2022-10-13T02:29:51.982Z,21.62
2022-10-13T02:30:59.165Z,19.50
2022-10-13T02:32:05.353Z,21.81
2022-10-13T02:34:23.903Z,19.44
2022-10-13T02:35:31.414Z,19.00
2022-10-13T02:36:35.232Z,20.50
2022-10-13T02:36:37.525Z,16.06
2022-10-13T02:37:41.562Z,23.56
2022-10-13T02:38:47.337Z,22.62
2022-10-13T02:39:54.308Z,20.37
2022-10-13T02:41:03.353Z,20.19
2022-10-13T02:42:07.511Z,18.81
2022-10-13T02:43:17.315Z,21.00
2022-10-13T02:44:23.046Z,21.25
2022-10-13T02:45:28.648Z,20.81
2022-10-13T02:46:32.694Z,20.75
2022-10-13T02:48:03.793Z,20.44
2022-10-13T02:48:59.974Z,26.87
2022-10-13T02:49:54.776Z,24.94
2022-10-13T02:50:59.970Z,23.50
2022-10-13T02:52:03.919Z,25.50
2022-10-13T02:53:10.314Z,23.06
2022-10-13T02:54:16.222Z,27.37
2022-10-13T02:55:19.766Z,27.94
2022-10-13T02:56:23.677Z,24.69
2022-10-13T02:57:28.970Z,22.87
2022-10-13T02:58:32.814Z,21.47
2022-10-13T02:59:36.767Z,24.00
2022-10-13T03:00:40.873Z,18.00
2022-10-13T03:01:44.879Z,23.25
2022-10-13T03:02:50.390Z,22.37
2022-10-13T03:03:54.420Z,23.56
2022-10-13T03:04:58.432Z,19.94
2022-10-13T03:06:02.799Z,20.69
2022-10-13T03:07:06.820Z,19.87
2022-10-13T03:08:11.000Z,22.81
2022-10-13T03:09:14.967Z,23.94
2022-10-13T03:10:18.995Z,20.19
2022-10-13T03:11:24.549Z,20.06
2022-10-13T03:12:30.035Z,21.12
2022-10-13T03:13:33.969Z,22.50
2022-10-13T03:14:39.476Z,20.88
2022-10-13T03:15:43.409Z,19.19
2022-10-13T03:16:47.649Z,20.81
2022-10-13T03:55:04.747Z,20.81
2022-10-13T03:56:12.601Z,27.44
2022-10-13T03:57:16.538Z,21.50
2022-10-13T03:58:21.810Z,23.31
2022-10-13T03:59:25.846Z,17.50
2022-10-13T04:00:29.716Z,22.00
2022-10-13T04:01:34.514Z,21.62
2022-10-13T04:02:40.075Z,25.69
2022-10-13T04:03:43.992Z,17.12
2022-10-13T04:04:50.330Z,23.87
2022-10-13T04:05:55.301Z,25.44
2022-10-13T04:06:59.200Z,26.06
2022-10-13T04:08:03.175Z,25.88
2022-10-13T04:09:07.166Z,26.94
2022-10-13T04:10:11.691Z,20.56
2022-10-13T04:11:16.827Z,22.81
2022-10-13T04:12:24.713Z,26.25
2022-10-13T04:13:31.596Z,24.44
2022-10-13T04:14:35.475Z,27.07
2022-10-13T04:15:43.035Z,21.94
2022-10-13T04:16:47.418Z,20.19
2022-10-13T04:17:51.336Z,21.00
2022-10-13T04:19:01.642Z,19.12
2022-10-13T04:20:06.530Z,32.88
2022-10-13T04:21:12.711Z,25.94
2022-10-13T04:22:16.637Z,26.75
2022-10-13T04:23:20.548Z,24.63
2022-10-13T04:24:24.421Z,24.87
2022-10-13T04:25:28.261Z,19.87
2022-10-13T04:26:41.744Z,31.31
2022-10-13T04:27:42.147Z,24.87
2022-10-13T04:28:48.076Z,16.62
2022-10-13T04:29:53.960Z,23.00
2022-10-13T04:31:01.187Z,24.00
2022-10-13T04:32:05.155Z,19.87
2022-10-13T04:33:09.088Z,21.50
2022-10-13T04:34:12.998Z,23.38
2022-10-13T04:35:16.999Z,23.19
2022-10-13T04:36:21.853Z,25.94
2022-10-13T04:37:26.091Z,24.94
2022-10-13T04:38:29.942Z,26.93
2022-10-13T04:39:36.597Z,27.62
2022-10-13T04:40:39.680Z,32.94
2022-10-13T04:41:43.525Z,27.75
2022-10-13T04:42:49.016Z,30.00
2022-10-13T04:43:55.432Z,28.00
2022-10-13T04:45:00.995Z,25.62
2022-10-13T04:46:09.734Z,27.37
2022-10-13T04:47:15.228Z,31.62
2022-10-13T04:48:19.073Z,28.44
2022-10-13T04:49:23.003Z,26.87
2022-10-13T04:50:35.019Z,29.94
2022-10-13T04:51:35.695Z,25.75
2022-10-13T04:52:46.010Z,22.62
2022-10-13T04:53:54.379Z,26.19
2022-10-13T04:54:55.696Z,25.37
2022-10-13T04:56:30.489Z,28.50
2022-10-13T04:57:50.335Z,26.94
2022-10-13T04:58:36.168Z,29.06
2022-10-13T04:59:49.007Z,25.56
2022-10-13T05:00:56.706Z,27.06
2022-10-13T05:03:14.874Z,26.81
2022-10-13T05:21:41.089Z,36.88
2022-10-13T05:22:55.241Z,31.50
2022-10-13T05:24:07.415Z,25.19
2022-10-13T05:25:12.779Z,31.81
2022-10-13T05:26:19.766Z,35.94
2022-10-13T05:27:25.177Z,36.40
2022-10-13T05:28:30.380Z,35.13
2022-10-13T05:29:34.619Z,27.50
2022-10-13T05:30:41.731Z,33.75
2022-10-13T05:31:45.744Z,35.13
2022-10-13T05:32:53.759Z,35.88
2022-10-13T05:33:56.486Z,32.56
2022-10-13T05:35:00.385Z,33.50
2022-10-13T05:36:09.112Z,31.56
2022-10-13T05:37:19.354Z,30.07
2022-10-13T05:38:30.652Z,33.31
2022-10-13T05:41:08.455Z,30.31
2022-10-13T07:10:27.655Z,47.53
2022-10-13T07:12:23.398Z,35.81
2022-10-13T07:18:26.041Z,48.69
2022-10-13T07:19:49.452Z,49.06
2022-10-13T07:21:55.492Z,35.63
2022-10-13T07:24:13.288Z,37.00
2022-10-13T07:24:22.051Z,20.80
2022-10-13T07:25:26.123Z,25.50
2022-10-13T07:26:30.173Z,22.25
2022-10-13T07:27:35.104Z,22.19
2022-10-13T07:28:41.361Z,20.19
2022-10-13T07:29:46.558Z,36.69
2022-10-13T07:30:52.620Z,30.12
2022-10-13T07:31:56.511Z,39.19
2022-10-13T07:33:00.489Z,33.81
2022-10-13T07:34:04.471Z,40.75
2022-10-13T07:35:10.441Z,54.81
2022-10-13T07:36:14.696Z,45.94
2022-10-13T07:37:20.493Z,32.13
2022-10-13T07:38:24.853Z,22.75
2022-10-13T07:39:28.777Z,23.31
2022-10-13T07:40:34.987Z,23.38
2022-10-13T07:41:38.842Z,23.44
2022-10-13T07:42:42.783Z,19.25
2022-10-13T07:43:58.869Z,21.31
2022-10-13T07:45:02.878Z,18.75
2022-10-13T07:46:08.177Z,21.12
2022-10-13T07:47:12.089Z,22.50
2022-10-13T07:48:15.987Z,20.81
2022-10-13T07:49:20.006Z,18.19
2022-10-13T07:50:24.057Z,18.62
2022-10-13T07:51:27.927Z,21.06
2022-10-13T07:52:34.911Z,14.56
2022-10-13T07:53:39.015Z,19.25
2022-10-13T07:54:44.546Z,21.25
2022-10-13T07:55:50.582Z,25.88
2022-10-13T07:56:56.581Z,27.56
2022-10-13T07:58:03.874Z,39.94
2022-10-13T07:59:13.396Z,52.94
2022-10-13T08:00:15.752Z,66.40
2022-10-13T08:01:24.809Z,68.69
2022-10-13T08:02:25.638Z,61.67
2022-10-13T08:03:30.518Z,53.38
2022-10-13T08:04:35.969Z,50.69
2022-10-13T08:05:41.272Z,53.00
2022-10-13T08:06:45.343Z,51.37
2022-10-13T08:08:00.903Z,55.00
2022-10-13T08:09:25.057Z,54.50
2022-10-13T08:10:26.563Z,55.69
2022-10-13T08:11:33.624Z,43.44
2022-10-13T08:12:38.997Z,31.94
2022-10-13T08:13:48.807Z,33.06
2022-10-13T08:14:54.409Z,35.38
2022-10-13T08:16:12.509Z,39.13
2022-10-13T08:17:12.143Z,39.63
2022-10-13T08:18:16.204Z,43.94
2022-10-13T08:19:22.888Z,39.06
2022-10-13T08:20:36.183Z,36.81
2022-10-13T08:21:59.661Z,41.13
2022-10-13T08:22:56.411Z,38.19
2022-10-13T08:24:01.844Z,34.31
2022-10-13T08:25:06.174Z,34.75
2022-10-13T08:26:18.828Z,36.06
2022-10-13T08:27:32.824Z,38.88
2022-10-13T08:28:30.884Z,38.44
2022-10-13T08:29:34.941Z,36.00
2022-10-13T08:30:39.175Z,31.50
2022-10-13T08:31:43.561Z,32.69
2022-10-13T08:32:47.714Z,32.44
2022-10-13T08:33:51.668Z,28.94
2022-10-13T08:34:55.701Z,26.50
2022-10-13T08:35:59.668Z,9.69
2022-10-13T08:37:04.091Z,22.50
2022-10-13T08:38:10.041Z,16.75
2022-10-13T08:39:14.171Z,14.50
2022-10-13T08:40:21.074Z,19.19
2022-10-13T08:41:27.970Z,15.69
2022-10-13T08:42:31.930Z,12.13
2022-10-13T08:43:45.261Z,18.12
2022-10-13T08:45:54.051Z,20.75
2022-10-13T08:47:12.848Z,16.44
2022-10-13T08:48:31.739Z,21.44
2022-10-13T08:49:35.934Z,18.81
2022-10-13T08:50:42.947Z,17.81
2022-10-13T08:51:46.960Z,21.31
2022-10-13T08:53:03.003Z,18.31
2022-10-13T08:54:07.048Z,20.20
2022-10-13T08:55:15.156Z,22.25
2022-10-13T08:56:22.195Z,19.37
2022-10-13T08:57:26.273Z,19.31
2022-10-13T08:58:34.535Z,21.56
2022-10-13T08:59:38.574Z,18.75
2022-10-13T09:00:42.786Z,17.19
2022-10-13T09:01:46.912Z,22.37
2022-10-13T09:02:54.950Z,20.37
2022-10-13T09:04:10.781Z,16.19
2022-10-13T09:05:17.659Z,18.75
2022-10-13T09:06:36.470Z,14.44
2022-10-13T09:07:43.064Z,14.94
2022-10-13T09:09:09.065Z,17.06
2022-10-13T09:10:12.332Z,16.94
2022-10-13T09:11:16.294Z,11.19
2022-10-13T09:12:23.198Z,18.75
2022-10-13T09:13:27.173Z,15.00
2022-10-13T09:14:46.481Z,19.50
2022-10-13T10:12:37.723Z,12.63
2022-10-13T10:13:51.249Z,12.13
2022-10-13T10:14:50.780Z,12.75
2022-10-13T10:16:03.281Z,14.31
2022-10-13T10:17:14.728Z,15.38
2022-10-13T10:18:34.808Z,10.81
2022-10-13T10:19:59.874Z,18.25
2022-10-13T10:21:06.837Z,11.69
2022-10-13T10:22:16.651Z,14.75
2022-10-13T10:23:41.258Z,15.81
2022-10-13T10:25:07.388Z,13.25
2022-10-13T10:26:31.652Z,10.13
2022-10-13T10:27:43.548Z,7.12
2022-10-13T10:29:04.136Z,11.25
2022-10-13T10:30:11.136Z,13.38
2022-10-13T10:31:20.870Z,12.81
2022-10-13T10:32:42.923Z,14.56
2022-10-13T10:33:49.789Z,10.25
2022-10-13T10:35:14.858Z,15.44
2022-10-13T10:36:21.971Z,10.13
2022-10-13T10:37:48.415Z,11.75
2022-10-13T10:38:57.483Z,11.75
2022-10-13T10:40:13.109Z,13.06
2022-10-13T10:41:45.921Z,10.63
2022-10-13T10:42:58.363Z,11.94
2022-10-13T10:44:05.287Z,12.00
2022-10-13T10:45:17.957Z,14.13
2022-10-13T10:46:29.107Z,12.37
2022-10-13T10:47:39.101Z,8.69
2022-10-13T10:48:45.641Z,14.13
2022-10-13T10:49:51.242Z,17.44
2022-10-13T10:50:56.652Z,10.06
2022-10-13T10:52:03.553Z,14.25
2022-10-13T10:53:19.375Z,11.06
2022-10-13T10:54:27.938Z,10.88
2022-10-13T12:19:11.555Z,49.63
2022-10-13T12:20:21.786Z,53.50
2022-10-13T12:24:31.632Z,14.44
2022-10-13T12:25:38.588Z,13.44
2022-10-13T12:25:49.960Z,46.50
2022-10-13T12:26:44.370Z,16.12
2022-10-13T12:27:53.101Z,16.37
2022-10-13T12:30:35.321Z,17.37
2022-10-13T12:31:43.594Z,9.94
2022-10-13T12:32:49.835Z,13.81
2022-10-13T12:33:56.727Z,12.00
2022-10-13T12:35:21.989Z,12.63
2022-10-13T12:36:34.297Z,11.25
2022-10-13T12:37:38.441Z,13.50
2022-10-13T12:38:55.744Z,19.19
2022-10-13T12:43:29.572Z,50.69
2022-10-13T13:01:29.369Z,18.69
2022-10-13T13:10:41.131Z,9.44
2022-10-13T13:15:14.357Z,14.63
2022-10-13T13:22:11.047Z,12.75
2022-10-13T13:24:41.014Z,15.50
2022-10-13T13:25:51.865Z,13.38
2022-10-13T13:42:41.901Z,11.44
2022-10-13T13:43:10.745Z,9.63
2022-10-13T13:44:27.485Z,12.37
2022-10-13T13:46:58.200Z,9.56
2022-10-13T13:48:06.520Z,13.00
2022-10-13T13:53:38.977Z,13.31
2022-10-13T13:54:48.417Z,12.50
2022-10-13T14:51:16.557Z,20.31
2022-10-13T14:53:48.943Z,37.06
2022-10-13T14:54:54.640Z,26.06
2022-10-13T14:55:58.529Z,25.31
2022-10-13T14:57:05.647Z,24.75
2022-10-13T14:58:11.949Z,24.19
2022-10-13T14:59:16.248Z,23.19
2022-10-13T15:00:20.584Z,25.19
2022-10-13T15:01:26.694Z,25.50
2022-10-13T15:02:30.837Z,22.44
2022-10-13T15:03:36.379Z,20.56
2022-10-13T15:04:40.995Z,23.62
2022-10-13T15:05:44.993Z,36.56
2022-10-13T15:06:48.977Z,46.44
2022-10-13T15:07:52.915Z,49.63
2022-10-13T15:08:57.431Z,34.31
2022-10-13T15:10:05.494Z,35.50
2022-10-13T15:11:10.554Z,33.20
2022-10-13T15:12:14.265Z,28.75
2022-10-13T15:13:18.131Z,28.81
2022-10-13T15:14:22.088Z,21.94
2022-10-13T15:15:29.513Z,30.94
2022-10-13T15:16:38.647Z,32.87
2022-10-13T15:17:45.988Z,24.12
2022-10-13T15:18:50.280Z,27.06
2022-10-13T15:19:56.801Z,43.13
2022-10-13T15:21:04.687Z,23.38
2022-10-13T15:22:08.664Z,25.88
2022-10-13T15:23:12.610Z,66.06
2022-10-13T15:24:16.553Z,33.38
2022-10-13T15:25:20.464Z,20.62
2022-10-13T15:26:24.710Z,34.75
2022-10-13T15:27:42.991Z,38.20
2022-10-13T16:26:41.412Z,73.20
2022-10-13T16:56:48.620Z,69.94
2022-10-13T17:34:26.032Z,100.87
2022-10-13T17:35:31.989Z,115.80
2022-10-13T17:36:36.383Z,142.93
2022-10-13T17:37:40.350Z,138.67
2022-10-13T17:38:45.149Z,118.53
2022-10-13T17:39:57.915Z,109.40
2022-10-13T17:41:02.621Z,95.87
2022-10-13T17:42:07.246Z,115.19
2022-10-13T17:43:11.281Z,98.27
2022-10-13T17:44:15.224Z,75.40
2022-10-13T17:45:23.339Z,68.19
2022-10-13T17:46:38.291Z,70.27
2022-10-13T17:47:34.680Z,68.00
2022-10-13T17:48:39.394Z,73.93
2022-10-13T17:49:43.336Z,85.81
2022-10-13T17:50:48.824Z,79.31
2022-10-13T17:51:54.543Z,81.33
2022-10-13T17:52:58.524Z,75.44
2022-10-13T17:54:12.934Z,79.27
2022-10-13T17:55:11.714Z,75.00
2022-10-13T17:56:18.742Z,72.40
2022-10-13T17:57:23.952Z,69.06
2022-10-13T17:58:29.365Z,76.00
2022-10-13T17:59:34.835Z,82.56
2022-10-13T18:01:00.746Z,79.12
2022-10-13T18:01:45.426Z,73.67
2022-10-13T18:02:49.639Z,77.60
2022-10-13T18:03:57.724Z,84.07
2022-10-13T18:05:01.844Z,85.81
2022-10-13T18:06:07.521Z,93.00
2022-10-13T18:07:14.037Z,101.80
2022-10-13T18:08:18.020Z,88.27
2022-10-13T18:09:22.554Z,87.00
2022-10-13T18:10:26.669Z,82.69
2022-10-13T18:11:30.762Z,88.81
2022-10-13T18:12:38.052Z,84.00
2022-10-13T18:13:44.608Z,88.27
2022-10-13T18:14:50.279Z,81.44
2022-10-13T18:15:55.915Z,81.33
2022-10-13T18:17:01.074Z,83.27
2022-10-13T18:18:12.794Z,81.80
2022-10-13T18:19:12.420Z,89.27
2022-10-13T18:20:16.580Z,96.56
2022-10-13T18:21:23.154Z,98.31
2022-10-13T18:22:27.540Z,95.07
2022-10-13T18:23:35.896Z,108.37
2022-10-13T18:24:39.931Z,114.62
2022-10-13T18:25:44.006Z,110.13
2022-10-13T18:26:49.519Z,97.73
2022-10-13T18:27:53.527Z,117.07
2022-10-13T18:28:58.423Z,118.25
2022-10-13T18:30:04.517Z,125.80
2022-10-13T18:31:13.171Z,133.80
2022-10-13T18:32:17.202Z,129.07
2022-10-13T18:33:21.220Z,116.20
2022-10-13T18:34:25.327Z,117.93
2022-10-13T18:35:32.958Z,129.80
2022-10-13T18:36:42.232Z,133.53
2022-10-13T18:37:49.153Z,109.40
2022-10-13T18:38:55.066Z,117.73
2022-10-13T18:39:59.156Z,114.47
2022-10-13T18:41:03.228Z,116.44
2022-10-13T18:42:28.934Z,132.87
2022-10-13T18:43:34.728Z,119.73
2022-10-13T19:00:59.426Z,119.13
2022-10-13T19:06:10.003Z,122.53
2022-10-13T19:14:41.532Z,102.53
2022-10-13T19:17:24.968Z,123.80
2022-10-13T19:21:29.800Z,120.13
2022-10-13T19:37:45.118Z,105.73
2022-10-13T20:04:59.425Z,82.37
2022-10-13T20:06:06.532Z,78.69
2022-10-13T20:07:10.457Z,77.20
2022-10-13T20:08:14.308Z,76.56
2022-10-13T20:09:19.006Z,78.19
2022-10-13T20:10:23.806Z,78.25
2022-10-13T20:11:27.781Z,82.31
2022-10-13T20:12:31.626Z,84.25
2022-10-13T20:13:37.534Z,83.47
2022-10-13T20:14:43.079Z,87.20
2022-10-13T20:15:48.439Z,81.73
2022-10-13T20:16:52.357Z,86.12
2022-10-13T20:17:56.208Z,81.80
2022-10-13T20:19:01.586Z,83.53
2022-10-13T20:20:06.651Z,84.33
2022-10-13T20:21:13.374Z,89.73
2022-10-13T20:22:17.222Z,77.93
2022-10-13T20:23:22.613Z,87.69
2022-10-13T20:24:26.546Z,81.25
2022-10-13T20:25:30.466Z,115.67
2022-10-13T20:26:34.561Z,90.33
2022-10-13T20:27:38.458Z,112.20
2022-10-13T20:28:44.348Z,99.00
2022-10-13T20:29:49.905Z,94.25
2022-10-13T20:30:56.981Z,105.27
2022-10-13T20:32:00.918Z,102.87
2022-10-13T20:33:04.877Z,90.33
2022-10-13T20:34:10.365Z,88.67
2022-10-13T20:35:14.369Z,91.94
2022-10-13T20:36:19.906Z,86.33
2022-10-13T20:37:24.095Z,83.67
2022-10-13T20:38:30.467Z,88.27
2022-10-13T20:39:34.535Z,83.56
2022-10-13T20:40:38.459Z,87.80
2022-10-13T20:41:43.897Z,88.27
2022-10-13T20:42:52.494Z,83.62
2022-10-13T20:43:59.772Z,95.13
2022-10-13T20:45:03.795Z,86.33
2022-10-13T20:46:12.826Z,96.40
2022-10-13T20:47:16.687Z,100.73
2022-10-13T20:48:20.572Z,104.67
2022-10-13T20:49:24.530Z,98.20
2022-10-13T20:50:28.522Z,110.06
2022-10-13T20:51:32.468Z,105.75
2022-10-13T20:52:37.716Z,93.60
2022-10-13T20:53:43.872Z,89.73
2022-10-13T20:54:47.799Z,94.93
2022-10-13T20:55:59.173Z,74.93
2022-10-13T20:57:03.018Z,97.87
2022-10-13T20:58:06.904Z,97.19
2022-10-13T20:59:13.142Z,96.73
2022-10-13T21:00:18.013Z,109.53
2022-10-13T21:01:23.630Z,120.62
2022-10-13T21:02:27.616Z,113.06
2022-10-13T21:03:33.465Z,104.87
2022-10-13T21:04:37.400Z,107.73
2022-10-13T21:05:41.239Z,98.62
2022-10-13T21:06:47.934Z,108.80
2022-10-13T21:07:54.965Z,109.31
2022-10-13T21:21:25.248Z,109.53
2022-10-13T21:23:59.359Z,95.69
2022-10-13T21:25:10.216Z,89.40
2022-10-13T21:26:20.366Z,100.06
2022-10-13T21:32:42.692Z,100.33
2022-10-13T21:34:07.984Z,95.87
2022-10-13T21:39:06.914Z,96.07
2022-10-13T21:41:42.190Z,89.37
2022-10-13T21:44:30.223Z,110.37
2022-10-13T22:04:22.143Z,122.25
2022-10-13T22:05:08.982Z,111.27
2022-10-13T22:20:28.010Z,108.20
2022-10-13T22:21:41.532Z,105.47
2022-10-13T22:22:44.627Z,97.27
2022-10-13T22:37:02.269Z,77.37
2022-10-13T22:38:06.162Z,71.56
2022-10-13T22:39:10.982Z,73.37
2022-10-13T22:40:14.981Z,74.37
2022-10-13T22:41:20.843Z,80.47
2022-10-13T22:42:24.866Z,79.27
2022-10-13T22:43:30.434Z,80.62
2022-10-13T22:44:35.809Z,89.81
2022-10-13T22:45:39.760Z,76.53
2022-10-13T22:46:43.733Z,80.38
2022-10-13T22:47:51.767Z,82.00
2022-10-13T22:48:57.303Z,77.53
2022-10-13T22:50:01.200Z,79.19
2022-10-13T22:51:06.422Z,76.19
2022-10-13T22:52:10.331Z,80.20
2022-10-13T22:53:14.247Z,76.81
2022-10-13T22:54:20.586Z,75.94
2022-10-13T22:55:24.443Z,76.60
2022-10-13T22:56:30.731Z,78.87
2022-10-13T22:57:44.365Z,77.93
2022-10-13T22:58:45.387Z,79.31
2022-10-13T22:59:49.072Z,76.19
2022-10-13T23:00:53.264Z,78.87
2022-10-13T23:01:58.487Z,85.81
2022-10-13T23:03:02.506Z,76.00
2022-10-13T23:04:07.102Z,81.73
2022-10-13T23:05:10.963Z,77.94
2022-10-13T23:06:23.461Z,77.12
2022-10-13T23:07:24.468Z,78.73
2022-10-13T23:08:28.547Z,77.44
2022-10-13T23:09:32.475Z,83.31
2022-10-13T23:10:39.303Z,79.67
2022-10-13T23:11:45.179Z,78.27
2022-10-13T23:12:48.761Z,77.12
2022-10-13T23:13:52.627Z,74.93
2022-10-13T23:14:56.531Z,87.53
2022-10-13T23:16:03.833Z,77.07
2022-10-13T23:17:07.797Z,77.56
2022-10-13T23:18:11.837Z,72.60
2022-10-13T23:19:15.881Z,82.19
2022-10-13T23:20:30.801Z,74.67
2022-10-13T23:21:28.317Z,70.40
2022-10-13T23:22:32.297Z,44.00
2022-10-13T23:23:36.330Z,75.56
2022-10-13T23:24:41.852Z,80.44
2022-10-13T23:25:45.818Z,81.00
2022-10-13T23:26:49.828Z,84.80
2022-10-13T23:27:53.708Z,82.00
2022-10-13T23:29:00.714Z,83.47
2022-10-13T23:30:05.384Z,87.53
2022-10-13T23:31:14.637Z,74.33
2022-10-13T23:32:18.569Z,82.25
2022-10-13T23:33:22.436Z,79.87
2022-10-13T23:34:26.396Z,76.73
2022-10-13T23:35:30.348Z,90.27
2022-10-13T23:36:34.422Z,80.60
2022-10-13T23:37:38.366Z,91.50
2022-10-13T23:38:42.301Z,84.87
2022-10-13T23:39:46.235Z,80.81
2022-10-13T23:40:53.181Z,89.62
2022-10-13T23:42:00.249Z,85.87
2022-10-13T23:43:05.773Z,96.25
2022-10-13T23:46:55.362Z,101.53
2022-10-13T23:48:02.938Z,93.31
2022-10-13T23:49:07.573Z,103.93
2022-10-13T23:50:16.416Z,100.20
2022-10-13T23:51:23.093Z,101.80
2022-10-13T23:52:32.436Z,98.87
2022-10-13T23:53:40.126Z,105.37
2022-10-13T23:54:45.351Z,96.33
